Time;durP1;ratioP1;P1;durP2;ratioP2;P2;SDS_P1;SDS_P2;PMS_P1;PMS_P2;Temp;Humidity;BMP_temperature;BMP_pressure;BME280_temperature;BME280_humidity;BME280_pressure;Samples;Min_cycle;Max_cycle;Signal;HPM_P1;HPM_P2
2022/10/12 00:02:42;;;;;;;0.10;0.10;;;;;;;5.58;100.00;97355.25;5023250;28;20041;-73
2022/10/12 00:05:28;;;;;;;0.10;0.10;;;;;;;5.58;100.00;97357.91;5023268;28;20071;-73
2022/10/12 00:08:14;;;;;;;0.10;0.10;;;;;;;5.55;100.00;97360.97;5023127;28;20334;-75
2022/10/12 00:11:00;;;;;;;0.10;0.10;;;;;;;5.54;100.00;97354.00;5025187;28;20464;-75
2022/10/12 00:13:46;;;;;;;0.10;0.10;;;;;;;5.49;100.00;97354.59;5023063;28;20527;-74
2022/10/12 00:16:33;;;;;;;0.10;0.10;;;;;;;5.53;100.00;97363.00;5023492;28;20507;-73
2022/10/12 00:19:19;;;;;;;0.10;0.10;;;;;;;5.52;100.00;97362.16;5023620;28;20480;-75
2022/10/12 00:22:05;;;;;;;0.10;0.10;;;;;;;5.49;100.00;97365.19;5022568;28;20460;-75
2022/10/12 00:24:51;;;;;;;0.10;0.10;;;;;;;5.45;100.00;97363.16;5021560;28;20126;-75
2022/10/12 00:27:37;;;;;;;0.10;0.10;;;;;;;5.42;100.00;97363.53;5022849;28;20431;-74
2022/10/12 00:30:23;;;;;;;0.10;0.10;;;;;;;5.29;100.00;97358.91;5021441;28;20640;-75
2022/10/12 00:33:09;;;;;;;0.20;0.13;;;;;;;5.24;100.00;97356.88;5021150;28;21101;-75
2022/10/12 00:35:55;;;;;;;0.10;0.10;;;;;;;5.30;100.00;97364.06;5023584;28;20324;-75
2022/10/12 00:38:41;;;;;;;0.10;0.10;;;;;;;5.26;100.00;97360.13;5021635;28;20048;-73
2022/10/12 00:41:30;;;;;;;0.20;0.20;;;;;;;5.13;100.00;97362.69;5022548;28;20428;-75
2022/10/12 00:44:40;;;;;;;0.10;0.10;;;;;;;5.11;100.00;97362.06;5022632;28;20868;-75
2022/10/12 00:48:08;;;;;;;0.15;0.15;;;;;;;5.13;100.00;97360.03;5020084;28;20132;-75
2022/10/12 00:50:54;;;;;;;0.10;0.10;;;;;;;4.87;100.00;97365.13;5023603;28;20072;-74
2022/10/12 00:53:47;;;;;;;0.10;0.10;;;;;;;4.72;100.00;97368.66;5021182;28;20075;-73
2022/10/12 00:56:36;;;;;;;0.10;0.10;;;;;;;4.51;100.00;97371.28;5022349;28;20037;-73
2022/10/12 00:59:30;;;;;;;0.10;0.10;;;;;;;4.35;100.00;97372.34;5020566;28;20068;-75
2022/10/12 01:02:18;;;;;;;0.10;0.10;;;;;;;4.25;100.00;97368.34;5021202;28;20036;-75
2022/10/12 01:05:04;;;;;;;0.20;0.20;;;;;;;4.24;100.00;97366.72;5028409;28;20053;-74
2022/10/12 01:07:52;;;;;;;0.10;0.10;;;;;;;4.09;100.00;97375.50;5026825;28;20044;-74
2022/10/12 01:14:39;;;;;;;0.10;0.10;;;;;;;4.07;100.00;97372.22;5019398;28;20900;-74
2022/10/12 01:18:08;;;;;;;0.10;0.10;;;;;;;4.13;100.00;97371.50;5010277;28;20501;-75
2022/10/12 01:21:17;;;;;;;0.10;0.10;;;;;;;4.23;100.00;97373.84;5025748;28;20053;-73
2022/10/12 01:24:28;;;;;;;0.10;0.10;;;;;;;4.09;100.00;97370.22;5029162;28;20041;-73
2022/10/12 01:27:34;;;;;;;0.00;0.00;;;;;;;4.04;100.00;97361.16;5009966;28;20132;-75
2022/10/12 01:30:23;;;;;;;0.10;0.10;;;;;;;3.95;100.00;97360.44;5025721;28;20074;-75
2022/10/12 01:33:32;;;;;;;0.10;0.10;;;;;;;3.78;100.00;97361.66;5026853;28;20037;-74
2022/10/12 01:36:36;;;;;;;0.10;0.10;;;;;;;3.72;100.00;97360.56;5026147;28;20036;-75
2022/10/12 01:48:11;;;;;;;0.10;0.10;;;;;;;3.82;100.00;97358.47;4976827;28;21181;-75
2022/10/12 01:51:01;;;;;;;0.10;0.10;;;;;;;3.95;100.00;97347.22;5026944;28;20056;-71
2022/10/12 01:54:08;;;;;;;0.10;0.10;;;;;;;4.05;100.00;97342.47;5025020;28;20041;-72
2022/10/12 01:57:15;;;;;;;0.10;0.10;;;;;;;4.02;100.00;97334.06;5025315;28;20045;-72
2022/10/12 02:00:11;;;;;;;0.10;0.10;;;;;;;4.09;100.00;97329.66;5028464;28;20111;-73
2022/10/12 02:03:03;;;;;;;0.10;0.10;;;;;;;4.07;100.00;97353.69;5024752;28;20052;-73
2022/10/12 02:05:59;;;;;;;0.10;0.10;;;;;;;4.06;100.00;97343.28;5028387;28;20288;-71
2022/10/12 02:08:49;;;;;;;0.10;0.10;;;;;;;4.11;100.00;97339.03;5026428;28;20128;-73
2022/10/12 02:11:38;;;;;;;0.10;0.10;;;;;;;4.11;100.00;97333.75;5026503;28;20505;-73
2022/10/12 02:14:33;;;;;;;0.13;0.10;;;;;;;4.02;100.00;97332.22;5021673;28;20037;-74
2022/10/12 02:17:21;;;;;;;0.20;0.10;;;;;;;4.04;100.00;97337.31;5026286;28;20548;-74
2022/10/12 02:20:11;;;;;;;0.10;0.10;;;;;;;3.96;100.00;97330.31;5024275;28;20040;-73
2022/10/12 02:22:57;;;;;;;0.20;0.20;;;;;;;3.95;100.00;97336.63;5008024;28;20036;-74
2022/10/12 02:25:45;;;;;;;0.10;0.10;;;;;;;3.92;100.00;97334.34;4996661;28;20200;-73
2022/10/12 02:28:34;;;;;;;0.10;0.10;;;;;;;3.80;100.00;97318.09;5005866;28;20116;-74
2022/10/12 02:31:35;;;;;;;0.10;0.10;;;;;;;3.94;100.00;97327.03;5003965;28;20444;-74
2022/10/12 02:34:33;;;;;;;1.55;0.10;;;;;;;3.94;100.00;97311.16;5007166;28;20436;-74
2022/10/12 02:37:40;;;;;;;0.10;0.10;;;;;;;3.92;100.00;97327.22;5004227;28;20224;-73
2022/10/12 02:40:35;;;;;;;0.10;0.10;;;;;;;3.88;100.00;97311.88;5007403;28;20041;-74
2022/10/12 02:43:28;;;;;;;0.10;0.10;;;;;;;3.86;100.00;97311.25;5006714;28;20293;-74
2022/10/12 02:46:17;;;;;;;0.10;0.10;;;;;;;3.73;100.00;97311.06;5007193;28;20063;-73
2022/10/12 02:49:03;;;;;;;0.10;0.10;;;;;;;3.70;100.00;97312.28;5007951;28;20585;-73
2022/10/12 02:51:50;;;;;;;0.10;0.10;;;;;;;3.70;100.00;97306.16;5008928;28;21059;-73
2022/10/12 02:54:35;;;;;;;0.10;0.10;;;;;;;3.73;100.00;97311.06;5007645;28;20152;-73
2022/10/12 02:57:21;;;;;;;0.10;0.10;;;;;;;3.76;100.00;97308.06;5005119;28;20038;-74
2022/10/12 03:00:08;;;;;;;0.10;0.10;;;;;;;3.79;100.00;97305.06;5006974;28;20079;-74
2022/10/12 03:02:54;;;;;;;0.10;0.10;;;;;;;3.76;100.00;97274.47;5008705;28;20129;-72
2022/10/12 03:05:40;;;;;;;0.10;0.10;;;;;;;3.71;100.00;97291.91;5004684;28;20500;-74
2022/10/12 03:08:26;;;;;;;0.10;0.10;;;;;;;3.75;100.00;97295.84;4990253;28;20073;-74
2022/10/12 03:11:13;;;;;;;0.10;0.10;;;;;;;3.86;100.00;97288.25;5008441;28;20552;-73
2022/10/12 03:13:59;;;;;;;0.10;0.10;;;;;;;3.97;100.00;97288.75;5006678;28;20033;-72
2022/10/12 03:16:46;;;;;;;0.13;0.13;;;;;;;4.08;100.00;97290.94;5005835;28;20248;-73
2022/10/12 03:19:32;;;;;;;0.10;0.10;;;;;;;4.16;100.00;97294.28;5006486;28;20045;-73
2022/10/12 03:22:18;;;;;;;0.10;0.10;;;;;;;4.18;100.00;97286.13;5018043;28;20604;-74
2022/10/12 03:25:04;;;;;;;0.10;0.10;;;;;;;4.01;100.00;97298.81;5027129;28;20071;-72
2022/10/12 03:27:50;;;;;;;0.15;0.10;;;;;;;3.74;100.00;97302.16;5028082;28;20123;-72
2022/10/12 03:30:36;;;;;;;0.10;0.10;;;;;;;3.56;100.00;97302.53;5023202;28;20744;-73
2022/10/12 03:33:22;;;;;;;0.10;0.10;;;;;;;3.46;100.00;97296.69;5024693;28;20591;-74
2022/10/12 03:36:08;;;;;;;0.10;0.10;;;;;;;3.45;100.00;97295.88;5001953;28;20562;-72
2022/10/12 03:38:54;;;;;;;0.10;0.10;;;;;;;3.41;100.00;97305.16;5025086;28;20330;-72
2022/10/12 03:41:40;;;;;;;0.10;0.10;;;;;;;3.40;100.00;97303.53;5025358;28;20049;-73
2022/10/12 03:44:26;;;;;;;0.25;0.10;;;;;;;3.34;100.00;97298.97;5024758;28;20080;-74
2022/10/12 03:47:11;;;;;;;0.10;0.10;;;;;;;3.32;100.00;97293.84;5024293;28;20488;-71
2022/10/12 03:49:57;;;;;;;0.20;0.15;;;;;;;3.28;100.00;97297.06;5002487;28;20045;-73
2022/10/12 03:52:43;;;;;;;0.10;0.10;;;;;;;3.23;100.00;97294.13;5025962;28;20227;-72
2022/10/12 03:55:29;;;;;;;0.10;0.10;;;;;;;3.24;100.00;97291.31;5023728;28;20416;-72
2022/10/12 03:58:15;;;;;;;0.10;0.10;;;;;;;3.21;100.00;97290.84;5024047;28;20281;-73
2022/10/12 04:01:01;;;;;;;0.20;0.10;;;;;;;3.21;100.00;97288.22;5024409;28;20045;-72
2022/10/12 04:03:47;;;;;;;0.10;0.10;;;;;;;3.11;100.00;97287.63;5026471;28;20335;-73
2022/10/12 04:06:33;;;;;;;0.10;0.10;;;;;;;3.06;100.00;97285.56;5027278;28;20127;-71
2022/10/12 04:09:19;;;;;;;0.10;0.10;;;;;;;3.00;100.00;97288.91;5026616;28;20045;-73
2022/10/12 04:12:05;;;;;;;0.10;0.10;;;;;;;2.91;100.00;97290.81;5025825;28;20390;-71
2022/10/12 04:14:51;;;;;;;0.10;0.10;;;;;;;2.81;100.00;97281.50;5026975;28;20423;-73
2022/10/12 04:17:37;;;;;;;0.10;0.10;;;;;;;2.78;100.00;97287.97;5026230;28;20048;-72
2022/10/12 04:20:23;;;;;;;0.10;0.10;;;;;;;2.73;100.00;97295.63;5025995;28;20422;-73
2022/10/12 04:23:08;;;;;;;0.20;0.20;;;;;;;2.65;100.00;97285.94;5027095;28;20472;-73
2022/10/12 04:25:54;;;;;;;0.45;0.15;;;;;;;2.56;100.00;97289.63;5025113;28;20045;-73
2022/10/12 04:28:40;;;;;;;0.10;0.10;;;;;;;2.51;100.00;97290.19;5029161;28;20037;-73
2022/10/12 04:31:26;;;;;;;0.10;0.10;;;;;;;2.50;100.00;97285.91;5023490;28;21994;-73
2022/10/12 04:34:12;;;;;;;0.10;0.10;;;;;;;2.47;100.00;97286.22;5027761;28;20052;-73
2022/10/12 04:36:58;;;;;;;0.20;0.20;;;;;;;2.45;100.00;97279.50;5028102;28;20041;-75
2022/10/12 04:39:43;;;;;;;0.10;0.10;;;;;;;2.48;100.00;97279.13;5030077;28;20406;-73
2022/10/12 04:42:29;;;;;;;0.10;0.10;;;;;;;2.47;100.00;97274.84;5028372;28;20045;-73
2022/10/12 04:45:15;;;;;;;0.10;0.10;;;;;;;2.58;100.00;97276.25;5031825;28;20041;-75
2022/10/12 04:48:01;;;;;;;0.20;0.13;;;;;;;2.72;100.00;97278.09;5028718;28;20056;-73
2022/10/12 04:50:46;;;;;;;0.10;0.10;;;;;;;2.85;100.00;97288.88;5028936;28;20044;-75
2022/10/12 04:53:33;;;;;;;0.10;0.10;;;;;;;2.87;100.00;97280.78;5030119;28;20202;-73
2022/10/12 04:56:19;;;;;;;0.10;0.10;;;;;;;2.88;100.00;97282.41;5018770;28;20041;-75
2022/10/12 04:59:04;;;;;;;0.10;0.10;;;;;;;2.81;100.00;97290.25;5028973;28;20390;-73
2022/10/12 05:01:50;;;;;;;0.10;0.10;;;;;;;2.78;100.00;97290.59;5030690;28;20447;-73
2022/10/12 05:04:36;;;;;;;0.10;0.10;;;;;;;2.76;100.00;97276.75;5031412;28;20142;-74
2022/10/12 05:07:22;;;;;;;0.10;0.10;;;;;;;2.82;100.00;97269.94;5027548;28;20158;-75
2022/10/12 05:10:08;;;;;;;0.10;0.10;;;;;;;2.92;100.00;97273.13;5030334;28;20095;-73
2022/10/12 05:12:54;;;;;;;0.10;0.10;;;;;;;3.11;100.00;97277.06;5032177;28;20397;-73
2022/10/12 05:15:41;;;;;;;0.15;0.15;;;;;;;3.24;100.00;97274.59;5026962;28;20539;-74
2022/10/12 05:18:27;;;;;;;0.10;0.10;;;;;;;3.27;100.00;97277.72;5029503;28;20578;-74
2022/10/12 05:21:13;;;;;;;0.10;0.10;;;;;;;3.33;100.00;97278.81;5027177;28;20045;-75
2022/10/12 05:23:59;;;;;;;0.10;0.10;;;;;;;3.40;100.00;97266.47;5030753;28;20172;-75
2022/10/12 05:26:45;;;;;;;0.28;0.10;;;;;;;3.43;100.00;97267.97;5029132;28;20053;-75
2022/10/12 05:29:30;;;;;;;0.10;0.10;;;;;;;3.44;100.00;97264.31;5026833;28;20048;-74
2022/10/12 05:32:16;;;;;;;0.20;0.20;;;;;;;3.51;100.00;97260.75;5026352;28;20146;-75
2022/10/12 05:35:02;;;;;;;0.10;0.10;;;;;;;3.49;100.00;97265.38;5030927;28;20821;-73
2022/10/12 05:37:48;;;;;;;0.30;0.13;;;;;;;3.48;100.00;97263.75;5028456;28;20567;-74
2022/10/12 05:40:34;;;;;;;0.20;0.20;;;;;;;3.51;100.00;97263.38;5029003;28;20049;-75
2022/10/12 05:43:20;;;;;;;0.10;0.10;;;;;;;3.49;100.00;97260.09;5026977;28;20068;-74
2022/10/12 05:46:06;;;;;;;0.10;0.10;;;;;;;3.46;100.00;97255.16;5029261;28;20482;-74
2022/10/12 05:48:52;;;;;;;0.10;0.10;;;;;;;3.48;100.00;97257.63;5013514;28;20043;-74
2022/10/12 05:51:39;;;;;;;0.10;0.10;;;;;;;3.50;100.00;97259.09;5027899;28;20548;-75
2022/10/12 05:54:25;;;;;;;0.25;0.17;;;;;;;3.52;100.00;97261.56;5027779;28;20041;-75
2022/10/12 05:57:13;;;;;;;0.10;0.10;;;;;;;3.47;100.00;97248.88;5028023;28;20135;-74
2022/10/12 05:59:59;;;;;;;0.10;0.10;;;;;;;3.57;100.00;97261.81;5030663;28;20541;-73
2022/10/12 06:02:45;;;;;;;0.20;0.20;;;;;;;3.58;100.00;97263.44;5028334;28;20184;-75
2022/10/12 06:05:30;;;;;;;0.10;0.10;;;;;;;3.57;100.00;97262.63;5028790;28;20103;-75
2022/10/12 06:08:17;;;;;;;0.10;0.10;;;;;;;3.68;100.00;97268.47;5028917;28;20072;-73
2022/10/12 06:11:03;;;;;;;0.10;0.10;;;;;;;3.74;100.00;97262.44;5029714;28;20033;-73
2022/10/12 06:13:49;;;;;;;0.10;0.10;;;;;;;3.75;100.00;97277.31;5028274;28;20052;-74
2022/10/12 06:16:34;;;;;;;0.20;0.20;;;;;;;3.74;100.00;97267.75;5027502;28;20040;-73
2022/10/12 06:19:20;;;;;;;0.13;0.13;;;;;;;3.72;100.00;97257.31;5026707;28;20800;-72
2022/10/12 06:22:06;;;;;;;0.10;0.10;;;;;;;3.77;100.00;97259.41;5014156;28;20054;-73
2022/10/12 06:24:52;;;;;;;0.10;0.10;;;;;;;3.82;100.00;97267.63;5009631;28;20137;-72
2022/10/12 06:27:38;;;;;;;0.10;0.10;;;;;;;3.89;100.00;97258.75;5009387;28;20053;-72
2022/10/12 06:30:24;;;;;;;0.10;0.10;;;;;;;3.92;100.00;97261.03;5008981;28;20050;-72
2022/10/12 06:33:10;;;;;;;0.13;0.13;;;;;;;4.00;100.00;97275.16;5007388;28;20029;-71
2022/10/12 06:35:55;;;;;;;0.10;0.10;;;;;;;4.04;100.00;97274.56;5010226;28;20523;-71
2022/10/12 06:38:41;;;;;;;0.20;0.17;;;;;;;4.15;100.00;97276.75;5009343;28;20613;-74
2022/10/12 06:41:27;;;;;;;0.10;0.10;;;;;;;4.12;100.00;97285.06;5007713;28;20091;-75
2022/10/12 06:44:13;;;;;;;0.10;0.10;;;;;;;4.12;100.00;97278.94;5008608;28;20079;-75
2022/10/12 06:46:59;;;;;;;0.10;0.10;;;;;;;4.12;100.00;97277.09;5009234;28;20060;-74
2022/10/12 06:49:45;;;;;;;0.10;0.10;;;;;;;4.21;100.00;97290.25;5009389;28;20660;-73
2022/10/12 06:52:31;;;;;;;0.10;0.10;;;;;;;4.28;100.00;97296.44;4999087;28;20119;-74
2022/10/12 06:55:17;;;;;;;0.20;0.20;;;;;;;4.39;100.00;97288.81;5006250;28;20077;-74
2022/10/12 06:58:02;;;;;;;0.10;0.10;;;;;;;4.46;100.00;97295.00;5008454;28;20048;-74
2022/10/12 07:00:52;;;;;;;0.10;0.10;;;;;;;4.57;100.00;97290.19;5004818;28;20048;-75
2022/10/12 07:03:38;;;;;;;0.25;0.20;;;;;;;4.71;100.00;97281.34;5007537;28;20064;-73
2022/10/12 07:06:24;;;;;;;0.10;0.10;;;;;;;4.82;100.00;97288.78;5007123;28;20156;-75
2022/10/12 07:09:10;;;;;;;0.10;0.10;;;;;;;4.93;100.00;97290.91;5005682;28;20095;-74
2022/10/12 07:11:55;;;;;;;0.25;0.20;;;;;;;5.09;100.00;97292.47;5008558;28;20512;-74
2022/10/12 07:14:41;;;;;;;0.10;0.10;;;;;;;5.23;100.00;97302.16;5009445;28;20049;-73
2022/10/12 07:17:27;;;;;;;0.10;0.10;;;;;;;5.35;100.00;97293.63;5005869;28;20056;-73
2022/10/12 07:20:14;;;;;;;0.10;0.10;;;;;;;5.48;100.00;97293.72;5008958;28;20048;-75
2022/10/12 07:23:00;;;;;;;0.10;0.10;;;;;;;5.58;100.00;97292.34;5023957;28;20497;-75
2022/10/12 07:25:49;;;;;;;0.10;0.10;;;;;;;5.72;100.00;97295.88;5028684;28;20056;-74
2022/10/12 07:28:36;;;;;;;0.10;0.10;;;;;;;5.85;100.00;97300.44;5027545;28;20041;-72
2022/10/12 07:31:22;;;;;;;0.20;0.10;;;;;;;6.00;100.00;97289.72;5025920;28;20044;-73
2022/10/12 07:34:08;;;;;;;0.10;0.10;;;;;;;6.11;100.00;97295.25;5027113;28;20033;-73
2022/10/12 07:36:54;;;;;;;0.10;0.10;;;;;;;6.31;100.00;97294.50;5012775;28;20044;-71
2022/10/12 07:39:41;;;;;;;0.10;0.10;;;;;;;6.48;100.00;97294.94;5025357;28;20079;-74
2022/10/12 07:42:27;;;;;;;0.10;0.10;;;;;;;6.66;100.00;97300.47;5026585;28;20178;-75
2022/10/12 07:45:13;;;;;;;1.08;0.10;;;;;;;6.77;100.00;97301.72;5028773;28;20441;-76
2022/10/12 07:47:59;;;;;;;0.10;0.10;;;;;;;6.89;100.00;97297.44;5027289;28;20492;-76
2022/10/12 07:50:45;;;;;;;0.10;0.10;;;;;;;6.98;100.00;97302.34;5026508;28;20068;-73
2022/10/12 07:53:33;;;;;;;0.10;0.10;;;;;;;7.09;100.00;97298.25;5027344;28;20037;-74
2022/10/12 07:56:19;;;;;;;0.13;0.13;;;;;;;7.20;100.00;97302.13;5014549;28;20041;-74
2022/10/12 07:59:05;;;;;;;0.22;0.13;;;;;;;7.33;100.00;97299.44;5030394;28;20063;-73
2022/10/12 08:01:51;;;;;;;0.10;0.10;;;;;;;7.44;100.00;97296.16;4995170;28;20053;-74
2022/10/12 08:04:37;;;;;;;0.10;0.10;;;;;;;7.54;100.00;97288.53;5025518;28;20032;-73
2022/10/12 08:07:22;;;;;;;0.10;0.10;;;;;;;7.66;100.00;97296.72;5023631;28;20041;-75
2022/10/12 08:10:08;;;;;;;0.10;0.10;;;;;;;7.86;100.00;97283.34;5028480;28;20045;-74
2022/10/12 08:12:54;;;;;;;0.10;0.10;;;;;;;8.01;100.00;97297.19;5028168;28;20053;-74
2022/10/12 08:15:40;;;;;;;0.10;0.10;;;;;;;8.21;100.00;97293.63;5026356;28;20627;-75
2022/10/12 08:18:26;;;;;;;0.20;0.17;;;;;;;8.38;100.00;97298.28;5027432;28;20405;-75
2022/10/12 08:21:14;;;;;;;0.10;0.10;;;;;;;8.54;100.00;97296.13;5026669;28;20057;-74
2022/10/12 08:24:00;;;;;;;0.10;0.10;;;;;;;8.58;100.00;97279.50;5026786;28;20049;-74
2022/10/12 08:26:46;;;;;;;0.10;0.10;;;;;;;8.87;100.00;97298.56;5031554;28;20115;-75
2022/10/12 08:29:32;;;;;;;0.10;0.10;;;;;;;8.99;100.00;97283.47;5012141;28;20037;-74
2022/10/12 08:32:18;;;;;;;0.10;0.10;;;;;;;9.12;100.00;97296.72;5028614;28;20053;-75
2022/10/12 08:35:05;;;;;;;0.10;0.10;;;;;;;9.26;100.00;97292.09;5028703;28;20737;-75
2022/10/12 08:37:51;;;;;;;0.10;0.10;;;;;;;9.31;100.00;97291.41;5015138;28;20045;-74
2022/10/12 08:40:42;;;;;;;0.10;0.10;;;;;;;9.45;100.00;97292.94;5029076;28;20032;-74
2022/10/12 08:43:48;;;;;;;0.10;0.10;;;;;;;9.61;100.00;97292.34;5029160;28;20084;-75
2022/10/12 08:46:34;;;;;;;0.10;0.10;;;;;;;9.70;100.00;97291.00;5028451;28;20053;-73
2022/10/12 08:49:25;;;;;;;0.10;0.10;;;;;;;9.80;100.00;97287.81;5029151;28;20159;-75
2022/10/12 08:52:27;;;;;;;0.28;0.10;;;;;;;9.91;100.00;97278.25;5029927;28;20482;-73
2022/10/12 08:55:42;;;;;;;0.10;0.10;;;;;;;10.11;100.00;97281.47;5027771;28;20477;-75
2022/10/12 08:58:34;;;;;;;0.10;0.10;;;;;;;10.08;100.00;97271.25;5024885;28;20148;-75
2022/10/12 09:01:24;;;;;;;0.10;0.10;;;;;;;10.22;100.00;97275.41;4995180;28;20049;-75
2022/10/12 09:04:53;;;;;;;0.13;0.13;;;;;;;10.30;100.00;97275.09;5026198;28;20068;-74
2022/10/12 09:07:45;;;;;;;0.10;0.10;;;;;;;10.43;100.00;97273.28;5028664;28;20239;-73
2022/10/12 09:10:45;;;;;;;0.10;0.10;;;;;;;10.64;100.00;97285.31;5018677;28;20037;-74
2022/10/12 09:13:46;;;;;;;0.13;0.13;;;;;;;10.82;100.00;97282.59;5021224;28;20370;-73
2022/10/12 09:16:38;;;;;;;0.10;0.10;;;;;;;10.84;100.00;97272.47;5026092;28;20040;-76
2022/10/12 09:19:31;;;;;;;0.10;0.10;;;;;;;11.10;100.00;97277.38;5023252;28;20037;-76
2022/10/12 09:22:18;;;;;;;0.15;0.15;;;;;;;11.27;100.00;97282.84;5014725;28;20505;-73
2022/10/12 09:25:10;;;;;;;0.10;0.10;;;;;;;11.53;100.00;97283.44;5010514;28;20981;-73
2022/10/12 09:28:20;;;;;;;0.10;0.10;;;;;;;11.71;100.00;97283.31;5010431;28;20052;-73
2022/10/12 09:31:24;;;;;;;0.10;0.10;;;;;;;11.91;100.00;97281.09;5011307;28;20045;-75
2022/10/12 09:34:10;;;;;;;0.10;0.10;;;;;;;12.14;100.00;97284.75;5012630;28;20412;-75
2022/10/12 09:36:57;;;;;;;0.10;0.10;;;;;;;12.38;100.00;97282.81;4999316;28;20072;-73
2022/10/12 09:39:42;;;;;;;0.10;0.10;;;;;;;13.07;100.00;97272.72;5010307;28;20589;-74
2022/10/12 09:42:28;;;;;;;0.15;0.15;;;;;;;13.18;100.00;97279.09;5011203;28;20046;-76
2022/10/12 09:45:19;;;;;;;0.20;0.20;;;;;;;13.41;100.00;97276.25;5009562;28;20121;-76
2022/10/12 09:48:17;;;;;;;0.20;0.20;;;;;;;14.23;100.00;97270.84;5009905;28;20579;-75
2022/10/12 09:51:04;;;;;;;0.10;0.10;;;;;;;15.52;100.00;97271.78;5007766;28;20088;-75
2022/10/12 09:53:51;;;;;;;0.10;0.10;;;;;;;16.13;100.00;97266.72;5010920;28;20494;-75
2022/10/12 09:56:50;;;;;;;0.20;0.20;;;;;;;17.16;100.00;97256.94;5009688;28;20034;-74
2022/10/12 09:59:44;;;;;;;0.10;0.10;;;;;;;18.62;91.50;97248.66;5007338;28;20049;-74
2022/10/12 10:02:33;;;;;;;0.20;0.20;;;;;;;18.85;87.72;97252.59;5008159;28;20052;-76
2022/10/12 10:05:34;;;;;;;0.10;0.10;;;;;;;19.32;84.16;97249.22;5008319;28;20054;-75
2022/10/12 10:08:22;;;;;;;0.10;0.10;;;;;;;18.16;92.56;97256.19;5012354;28;20051;-76
2022/10/12 10:11:19;;;;;;;0.10;0.10;;;;;;;21.19;75.48;97240.91;5008768;28;20374;-74
2022/10/12 10:14:05;;;;;;;0.10;0.10;;;;;;;24.24;52.48;97244.19;5007964;28;20041;-75
2022/10/12 10:16:53;;;;;;;0.10;0.10;;;;;;;22.12;58.65;97241.69;5011411;28;20662;-75
2022/10/12 10:19:39;;;;;;;0.10;0.10;;;;;;;21.55;64.55;97252.81;5007134;28;20657;-75
2022/10/12 10:22:25;;;;;;;0.20;0.20;;;;;;;20.95;73.34;97247.28;5020897;28;20053;-76
2022/10/12 10:25:19;;;;;;;0.10;0.10;;;;;;;20.80;71.28;97248.31;5016967;28;20046;-75
2022/10/12 10:28:20;;;;;;;0.10;0.10;;;;;;;20.36;73.80;97239.66;5029811;28;20429;-76
2022/10/12 10:31:20;;;;;;;0.10;0.10;;;;;;;20.98;67.69;97235.78;5019532;28;20758;-77
2022/10/12 10:34:06;;;;;;;0.17;0.17;;;;;;;21.93;61.60;97239.03;4320161;28;10000360;-77
2022/10/12 10:36:55;;;;;;;0.20;0.20;;;;;;;22.71;57.54;97239.84;5018065;28;20096;-77
2022/10/12 10:39:46;;;;;;;0.10;0.10;;;;;;;22.17;57.16;97236.94;5017548;28;20437;-76
2022/10/12 10:42:33;;;;;;;0.10;0.10;;;;;;;20.30;70.18;97247.88;4988103;28;20045;-76
2022/10/12 10:45:25;;;;;;;0.10;0.10;;;;;;;19.14;82.73;97239.06;5022620;28;20489;-77
2022/10/12 10:48:18;;;;;;;0.10;0.10;;;;;;;19.62;82.20;97239.19;5025457;28;20304;-76
2022/10/12 10:51:06;;;;;;;0.10;0.10;;;;;;;19.32;83.42;97235.66;5025566;28;20420;-77
2022/10/12 10:53:52;;;;;;;0.20;0.20;;;;;;;18.95;85.82;97238.13;5015321;28;20076;-77
2022/10/12 10:56:38;;;;;;;0.35;0.20;;;;;;;21.00;76.41;97228.13;5009935;28;20033;-74
2022/10/12 10:59:39;;;;;;;0.20;0.20;;;;;;;23.00;57.22;97223.13;5028747;28;20057;-77
2022/10/12 11:02:28;;;;;;;0.10;0.10;;;;;;;23.58;54.27;97225.75;5018264;28;20820;-74
2022/10/12 11:05:28;;;;;;;0.20;0.20;;;;;;;22.48;54.41;97228.09;5019215;28;20220;-72
2022/10/12 11:08:29;;;;;;;0.10;0.10;;;;;;;20.16;78.19;97233.41;5026531;28;20036;-72
2022/10/12 11:11:22;;;;;;;0.20;0.20;;;;;;;20.46;76.17;97240.34;5025696;28;20314;-73
2022/10/12 11:14:14;;;;;;;0.20;0.20;;;;;;;19.93;76.39;97235.03;5006171;28;20053;-75
2022/10/12 11:17:05;;;;;;;0.10;0.10;;;;;;;20.07;77.48;97232.41;5013519;28;20132;-76
2022/10/12 11:20:04;;;;;;;0.10;0.10;;;;;;;21.76;69.67;97230.66;4963733;28;20331;-77
2022/10/12 11:23:16;;;;;;;0.32;0.20;;;;;;;21.12;68.11;97224.97;4969044;28;20045;-77
2022/10/12 11:26:18;;;;;;;0.30;0.10;;;;;;;23.19;59.56;97221.03;4975172;28;20057;-76
2022/10/12 11:29:05;;;;;;;0.10;0.10;;;;;;;25.72;46.80;97208.28;5007026;28;20106;-76
2022/10/12 11:32:13;;;;;;;0.20;0.20;;;;;;;29.08;34.24;97201.63;5022274;28;20042;-76
2022/10/12 11:35:02;;;;;;;0.10;0.10;;;;;;;29.01;36.52;97199.47;5031968;28;20405;-74
2022/10/12 11:37:58;;;;;;;0.00;0.00;;;;;;;26.89;38.51;97201.13;5026987;28;20041;-76
2022/10/12 11:40:53;;;;;;;0.10;0.10;;;;;;;23.59;48.39;97213.69;4996535;28;20045;-76
2022/10/12 11:44:00;;;;;;;0.10;0.10;;;;;;;22.44;59.25;97205.31;4996943;28;20044;-76
2022/10/12 11:46:52;;;;;;;0.10;0.10;;;;;;;24.66;46.51;97199.69;5026827;28;20063;-74
2022/10/12 11:49:58;;;;;;;0.00;0.00;;;;;;;22.82;51.52;97194.88;5008368;28;20145;-74
2022/10/12 11:52:47;;;;;;;0.00;0.00;;;;;;;20.45;75.32;97189.81;5027546;28;20041;-73
2022/10/12 11:55:59;;;;;;;0.00;0.00;;;;;;;18.92;85.55;97204.28;5037736;28;20039;-75
2022/10/12 11:58:46;;;;;;;0.05;0.05;;;;;;;18.86;86.95;97203.50;5037693;28;20865;-74
2022/10/12 12:02:00;;;;;;;0.10;0.00;;;;;;;18.44;91.13;97192.38;5033948;28;20119;-74
2022/10/12 12:04:47;;;;;;;0.10;0.10;;;;;;;18.71;90.73;97191.97;5020191;28;20132;-74
2022/10/12 12:07:43;;;;;;;0.10;0.10;;;;;;;19.36;86.05;97195.16;5026561;28;20442;-76
2022/10/12 12:10:34;;;;;;;0.10;0.10;;;;;;;19.38;86.79;97188.38;5016248;28;20033;-76
2022/10/12 12:13:25;;;;;;;0.10;0.10;;;;;;;20.36;78.46;97182.59;5028031;28;20045;-74
2022/10/12 12:16:12;;;;;;;0.10;0.10;;;;;;;20.36;79.94;97182.59;5025268;28;20388;-74
2022/10/12 12:19:16;;;;;;;0.10;0.10;;;;;;;19.92;82.44;97170.13;5026619;28;20048;-74
2022/10/12 12:22:14;;;;;;;0.10;0.10;;;;;;;21.38;69.97;97169.00;5024945;28;20045;-75
2022/10/12 12:25:12;;;;;;;0.10;0.10;;;;;;;22.07;61.75;97163.53;5026925;28;20334;-74
2022/10/12 12:28:18;;;;;;;0.10;0.10;;;;;;;21.08;67.45;97162.16;5027806;28;20045;-76
2022/10/12 12:31:10;;;;;;;0.10;0.10;;;;;;;21.08;69.74;97164.06;5024736;28;20065;-74
2022/10/12 12:34:11;;;;;;;0.10;0.10;;;;;;;19.83;79.09;97171.88;5026419;28;20042;-75
2022/10/12 12:37:09;;;;;;;0.00;0.00;;;;;;;19.81;78.89;97165.94;5026575;28;20117;-74
2022/10/12 12:39:57;;;;;;;0.10;0.10;;;;;;;18.79;86.05;97161.53;5025313;28;20433;-76
2022/10/12 12:42:43;;;;;;;0.10;0.10;;;;;;;19.06;85.16;97159.09;5025833;28;20441;-75
2022/10/12 12:45:32;;;;;;;0.15;0.15;;;;;;;19.57;83.43;97169.47;4979666;28;20059;-75
2022/10/12 12:48:40;;;;;;;0.20;0.20;;;;;;;20.52;79.26;97143.25;5026491;28;20075;-74
2022/10/12 12:51:36;;;;;;;0.10;0.10;;;;;;;19.80;81.08;97161.59;5025226;28;20041;-75
2022/10/12 12:54:22;;;;;;;0.10;0.10;;;;;;;18.54;89.26;97163.31;5024500;28;20116;-75
2022/10/12 12:57:22;;;;;;;0.10;0.10;;;;;;;19.47;86.52;97167.66;5023158;28;20179;-75
2022/10/12 13:00:14;;;;;;;0.00;0.00;;;;;;;18.75;87.92;97163.97;5026575;28;20038;-74
2022/10/12 13:03:20;;;;;;;0.00;0.00;;;;;;;18.73;87.85;97162.66;5026039;28;20862;-74
2022/10/12 13:06:48;;;;;;;0.15;0.15;;;;;;;18.04;91.39;97157.13;5027787;28;20606;-74
2022/10/12 13:09:43;;;;;;;0.10;0.10;;;;;;;19.85;81.11;97151.50;5031375;28;20036;-74
2022/10/12 13:13:07;;;;;;;0.10;0.10;;;;;;;22.25;61.29;97146.25;5029132;28;20552;-75
2022/10/12 13:16:20;;;;;;;0.10;0.10;;;;;;;20.80;74.89;97147.69;5028524;28;20045;-76
2022/10/12 13:19:11;;;;;;;0.10;0.10;;;;;;;19.09;85.44;97169.41;5027901;28;20037;-74
2022/10/12 13:22:03;;;;;;;0.15;0.10;;;;;;;18.76;90.48;97164.81;5018595;28;20057;-76
2022/10/12 13:24:52;;;;;;;0.10;0.10;;;;;;;17.59;94.51;97162.72;5010766;28;20107;-74
2022/10/12 13:27:45;;;;;;;0.05;0.05;;;;;;;16.98;98.50;97156.38;4993463;28;20045;-75
2022/10/12 13:31:11;;;;;;;0.17;0.10;;;;;;;18.10;94.09;97155.19;5009171;28;20041;-76
2022/10/12 13:34:09;;;;;;;0.10;0.10;;;;;;;19.26;88.85;97149.97;5012947;28;20337;-76
2022/10/12 13:37:01;;;;;;;0.10;0.10;;;;;;;19.23;85.71;97142.41;5011418;28;20041;-75